sensor_id;sensor_type;location;lat;lon;timestamp;pressure;altitude;pressure_sealevel;temperature;humidity
10071;BME280;5074;53.720;10.014;2023-06-04T00:02:07;101883.72;;;11.09;100.00
10071;BME280;5074;53.720;10.014;2023-06-04T00:04:35;101875.34;;;10.81;100.00
10071;BME280;5074;53.720;10.014;2023-06-04T00:07:04;101878.94;;;10.80;100.00
10071;BME280;5074;53.720;10.014;2023-06-04T00:09:32;101871.94;;;10.72;100.00
10071;BME280;5074;53.720;10.014;2023-06-04T00:12:02;101874.72;;;10.66;100.00
10071;BME280;5074;53.720;10.014;2023-06-04T00:14:30;101868.13;;;10.86;100.00
10071;BME280;5074;53.720;10.014;2023-06-04T00:16:58;101869.69;;;10.96;100.00
10071;BME280;5074;53.720;10.014;2023-06-04T00:19:26;101859.91;;;10.97;100.00
10071;BME280;5074;53.720;10.014;2023-06-04T00:21:55;101868.13;;;10.86;100.00
10071;BME280;5074;53.720;10.014;2023-06-04T00:24:23;101867.38;;;10.79;100.00
10071;BME280;5074;53.720;10.014;2023-06-04T00:26:51;101845.47;;;10.57;100.00
10071;BME280;5074;53.720;10.014;2023-06-04T00:29:20;101864.19;;;10.57;100.00
10071;BME280;5074;53.720;10.014;2023-06-04T00:31:48;101859.84;;;10.50;100.00
10071;BME280;5074;53.720;10.014;2023-06-04T00:34:17;101864.56;;;10.35;100.00
10071;BME280;5074;53.720;10.014;2023-06-04T00:36:45;101859.31;;;10.28;100.00
10071;BME280;5074;53.720;10.014;2023-06-04T00:39:13;101863.16;;;10.09;100.00
10071;BME280;5074;53.720;10.014;2023-06-04T00:41:42;101858.66;;;10.13;100.00
10071;BME280;5074;53.720;10.014;2023-06-04T00:44:10;101848.16;;;10.01;100.00
10071;BME280;5074;53.720;10.014;2023-06-04T00:46:39;101850.16;;;9.86;100.00
10071;BME280;5074;53.720;10.014;2023-06-04T00:49:07;101861.88;;;9.76;100.00
10071;BME280;5074;53.720;10.014;2023-06-04T00:51:39;101850.41;;;9.71;100.00
10071;BME280;5074;53.720;10.014;2023-06-04T00:54:07;101850.56;;;9.59;100.00
10071;BME280;5074;53.720;10.014;2023-06-04T00:56:36;101855.16;;;9.46;100.00
10071;BME280;5074;53.720;10.014;2023-06-04T00:59:07;101833.16;;;9.28;100.00
10071;BME280;5074;53.720;10.014;2023-06-04T01:01:42;101848.31;;;9.28;100.00
10071;BME280;5074;53.720;10.014;2023-06-04T01:04:18;101859.03;;;9.25;100.00
10071;BME280;5074;53.720;10.014;2023-06-04T01:06:50;101853.59;;;9.31;100.00
10071;BME280;5074;53.720;10.014;2023-06-04T01:09:19;101857.19;;;9.28;100.00
10071;BME280;5074;53.720;10.014;2023-06-04T01:11:47;101860.59;;;9.39;100.00
10071;BME280;5074;53.720;10.014;2023-06-04T01:14:15;101869.47;;;9.40;100.00
10071;BME280;5074;53.720;10.014;2023-06-04T01:16:49;101860.63;;;9.38;100.00
10071;BME280;5074;53.720;10.014;2023-06-04T01:19:39;101865.34;;;9.16;100.00
10071;BME280;5074;53.720;10.014;2023-06-04T01:22:18;101865.31;;;9.19;100.00
10071;BME280;5074;53.720;10.014;2023-06-04T01:24:59;101861.22;;;8.89;100.00
10071;BME280;5074;53.720;10.014;2023-06-04T01:27:30;101860.34;;;8.85;100.00
10071;BME280;5074;53.720;10.014;2023-06-04T01:29:59;101863.81;;;8.93;100.00
10071;BME280;5074;53.720;10.014;2023-06-04T01:32:29;101864.66;;;9.00;100.00
10071;BME280;5074;53.720;10.014;2023-06-04T01:34:58;101869.97;;;8.97;100.00
10071;BME280;5074;53.720;10.014;2023-06-04T01:37:26;101869.13;;;8.95;100.00
10071;BME280;5074;53.720;10.014;2023-06-04T01:39:54;101878.22;;;8.75;100.00
10071;BME280;5074;53.720;10.014;2023-06-04T01:42:22;101874.63;;;8.79;100.00
10071;BME280;5074;53.720;10.014;2023-06-04T01:44:50;101875.50;;;8.83;100.00
10071;BME280;5074;53.720;10.014;2023-06-04T01:47:19;101874.94;;;8.47;100.00
10071;BME280;5074;53.720;10.014;2023-06-04T01:49:49;101879.34;;;8.52;100.00
10071;BME280;5074;53.720;10.014;2023-06-04T01:52:17;101873.13;;;8.50;100.00
10071;BME280;5074;53.720;10.014;2023-06-04T01:54:47;101871.16;;;8.71;100.00
10071;BME280;5074;53.720;10.014;2023-06-04T01:57:19;101878.22;;;8.75;100.00
10071;BME280;5074;53.720;10.014;2023-06-04T01:59:48;101876.59;;;8.59;100.00
10071;BME280;5074;53.720;10.014;2023-06-04T02:02:16;101876.63;;;8.56;100.00
10071;BME280;5074;53.720;10.014;2023-06-04T02:04:45;101879.22;;;8.62;100.00
10071;BME280;5074;53.720;10.014;2023-06-04T02:07:14;101881.09;;;8.55;100.00
10071;BME280;5074;53.720;10.014;2023-06-04T02:09:44;101874.06;;;8.39;100.00
10071;BME280;5074;53.720;10.014;2023-06-04T02:12:12;101871.31;;;8.56;100.00
10071;BME280;5074;53.720;10.014;2023-06-04T02:14:40;101877.66;;;8.39;100.00
10071;BME280;5074;53.720;10.014;2023-06-04T02:17:09;101868.88;;;8.23;100.00
10071;BME280;5074;53.720;10.014;2023-06-04T02:19:39;101869.97;;;7.97;100.00
10071;BME280;5074;53.720;10.014;2023-06-04T02:22:11;101872.53;;;8.10;100.00
10071;BME280;5074;53.720;10.014;2023-06-04T02:24:41;101868.22;;;7.95;100.00
10071;BME280;5074;53.720;10.014;2023-06-04T02:27:10;101873.56;;;7.90;100.00
10071;BME280;5074;53.720;10.014;2023-06-04T02:29:39;101878.00;;;7.90;100.00
10071;BME280;5074;53.720;10.014;2023-06-04T02:32:07;101870.84;;;7.96;100.00
10071;BME280;5074;53.720;10.014;2023-06-04T02:34:35;101868.09;;;8.10;100.00
10071;BME280;5074;53.720;10.014;2023-06-04T02:37:04;101863.69;;;8.02;100.00
10071;BME280;5074;53.720;10.014;2023-06-04T02:39:32;101866.31;;;8.11;100.00
10071;BME280;5074;53.720;10.014;2023-06-04T02:42:02;101863.53;;;8.26;100.00
10071;BME280;5074;53.720;10.014;2023-06-04T02:44:30;101869.66;;;8.34;100.00
10071;BME280;5074;53.720;10.014;2023-06-04T02:46:58;101866.03;;;8.43;100.00
10071;BME280;5074;53.720;10.014;2023-06-04T02:49:26;101852.81;;;8.34;100.00
10071;BME280;5074;53.720;10.014;2023-06-04T02:51:54;101860.03;;;8.20;100.00
10071;BME280;5074;53.720;10.014;2023-06-04T02:54:22;101861.66;;;8.39;100.00
10071;BME280;5074;53.720;10.014;2023-06-04T02:56:50;101859.00;;;8.36;100.00
10071;BME280;5074;53.720;10.014;2023-06-04T02:59:20;101858.28;;;8.15;100.00
10071;BME280;5074;53.720;10.014;2023-06-04T03:01:49;101856.72;;;7.87;100.00
10071;BME280;5074;53.720;10.014;2023-06-04T03:04:17;101858.56;;;7.75;100.00
10071;BME280;5074;53.720;10.014;2023-06-04T03:06:47;101864.75;;;7.80;100.00
10071;BME280;5074;53.720;10.014;2023-06-04T03:09:24;101856.69;;;7.90;100.00
10071;BME280;5074;53.720;10.014;2023-06-04T03:11:52;101861.19;;;7.83;100.00
10071;BME280;5074;53.720;10.014;2023-06-04T03:14:22;101853.19;;;7.85;100.00
10071;BME280;5074;53.720;10.014;2023-06-04T03:16:59;101855.88;;;7.78;100.00
10071;BME280;5074;53.720;10.014;2023-06-04T03:19:35;101847.88;;;7.85;100.00
10071;BME280;5074;53.720;10.014;2023-06-04T03:22:04;101850.50;;;7.89;100.00
10071;BME280;5074;53.720;10.014;2023-06-04T03:24:33;101853.97;;;8.00;100.00
10071;BME280;5074;53.720;10.014;2023-06-04T03:27:03;101848.75;;;7.85;100.00
10071;BME280;5074;53.720;10.014;2023-06-04T03:29:33;101852.31;;;7.79;100.00
10071;BME280;5074;53.720;10.014;2023-06-04T03:32:02;101852.41;;;7.67;100.00
10071;BME280;5074;53.720;10.014;2023-06-04T03:34:30;101855.09;;;7.61;100.00
10071;BME280;5074;53.720;10.014;2023-06-04T03:37:01;101857.72;;;7.69;100.00
10071;BME280;5074;53.720;10.014;2023-06-04T03:39:29;101857.59;;;7.92;100.00
10071;BME280;5074;53.720;10.014;2023-06-04T03:41:58;101862.09;;;7.80;100.00
10071;BME280;5074;53.720;10.014;2023-06-04T03:44:26;101861.06;;;7.97;100.00
10071;BME280;5074;53.720;10.014;2023-06-04T03:46:55;101860.91;;;8.25;100.00
10071;BME280;5074;53.720;10.014;2023-06-04T03:49:23;101861.84;;;8.17;100.00
10071;BME280;5074;53.720;10.014;2023-06-04T03:51:51;101867.91;;;8.35;100.00
10071;BME280;5074;53.720;10.014;2023-06-04T03:54:20;101865.19;;;8.40;100.00
10071;BME280;5074;53.720;10.014;2023-06-04T03:56:48;101863.38;;;8.46;100.00
10071;BME280;5074;53.720;10.014;2023-06-04T03:59:17;101867.88;;;8.40;100.00
10071;BME280;5074;53.720;10.014;2023-06-04T04:01:45;101863.38;;;8.49;100.00
10071;BME280;5074;53.720;10.014;2023-06-04T04:04:14;101861.56;;;8.51;100.00
10071;BME280;5074;53.720;10.014;2023-06-04T04:06:42;101860.56;;;8.62;100.00
10071;BME280;5074;53.720;10.014;2023-06-04T04:09:10;101864.06;;;8.70;100.00
10071;BME280;5074;53.720;10.014;2023-06-04T04:11:38;101864.88;;;8.75;100.00
10071;BME280;5074;53.720;10.014;2023-06-04T04:14:07;101872.13;;;8.64;100.00
10071;BME280;5074;53.720;10.014;2023-06-04T04:16:35;101886.22;;;8.77;100.00
10071;BME280;5074;53.720;10.014;2023-06-04T04:19:03;101883.59;;;8.69;100.00
10071;BME280;5074;53.720;10.014;2023-06-04T04:21:36;101879.13;;;8.76;100.00
10071;BME280;5074;53.720;10.014;2023-06-04T04:24:05;101873.72;;;8.80;100.00
10071;BME280;5074;53.720;10.014;2023-06-04T04:26:33;101878.16;;;8.81;100.00
10071;BME280;5074;53.720;10.014;2023-06-04T04:29:01;101881.72;;;8.80;100.00
10071;BME280;5074;53.720;10.014;2023-06-04T04:31:30;101874.53;;;8.90;100.00
10071;BME280;5074;53.720;10.014;2023-06-04T04:33:59;101879.84;;;8.92;100.00
10071;BME280;5074;53.720;10.014;2023-06-04T04:36:27;101870.00;;;8.95;100.00
10071;BME280;5074;53.720;10.014;2023-06-04T04:38:56;101878.88;;;8.99;100.00
10071;BME280;5074;53.720;10.014;2023-06-04T04:41:25;101877.97;;;8.97;100.00
10071;BME280;5074;53.720;10.014;2023-06-04T04:43:53;101886.75;;;9.08;100.00
10071;BME280;5074;53.720;10.014;2023-06-04T04:46:21;101877.81;;;9.12;100.00
10071;BME280;5074;53.720;10.014;2023-06-04T04:48:49;101890.28;;;9.13;100.00
10071;BME280;5074;53.720;10.014;2023-06-04T04:51:17;101891.06;;;9.20;100.00
10071;BME280;5074;53.720;10.014;2023-06-04T04:53:45;101879.53;;;9.18;100.00
10071;BME280;5074;53.720;10.014;2023-06-04T04:56:15;101881.16;;;9.31;100.00
10071;BME280;5074;53.720;10.014;2023-06-04T04:58:43;101886.44;;;9.37;100.00
10071;BME280;5074;53.720;10.014;2023-06-04T05:01:11;101881.91;;;9.43;100.00
10071;BME280;5074;53.720;10.014;2023-06-04T05:03:39;101891.66;;;9.45;100.00
10071;BME280;5074;53.720;10.014;2023-06-04T05:06:07;101871.28;;;9.39;100.00
10071;BME280;5074;53.720;10.014;2023-06-04T05:08:35;101873.72;;;9.56;100.00
10071;BME280;5074;53.720;10.014;2023-06-04T05:11:04;101884.25;;;9.67;100.00
10071;BME280;5074;53.720;10.014;2023-06-04T05:13:34;101875.28;;;9.73;100.00
10071;BME280;5074;53.720;10.014;2023-06-04T05:16:03;101877.84;;;9.79;100.00
10071;BME280;5074;53.720;10.014;2023-06-04T05:18:33;101876.84;;;9.86;100.00
10071;BME280;5074;53.720;10.014;2023-06-04T05:21:02;101875.97;;;9.87;100.00
10071;BME280;5074;53.720;10.014;2023-06-04T05:23:30;101883.84;;;9.97;100.00
10071;BME280;5074;53.720;10.014;2023-06-04T05:25:59;101881.91;;;10.05;100.00
10071;BME280;5074;53.720;10.014;2023-06-04T05:28:27;101887.06;;;10.19;100.00
10071;BME280;5074;53.720;10.014;2023-06-04T05:30:57;101889.63;;;10.25;100.00
10071;BME280;5074;53.720;10.014;2023-06-04T05:33:26;101894.00;;;10.31;100.00
10071;BME280;5074;53.720;10.014;2023-06-04T05:35:55;101887.63;;;10.41;100.00
10071;BME280;5074;53.720;10.014;2023-06-04T05:38:24;101891.25;;;10.37;100.00
10071;BME280;5074;53.720;10.014;2023-06-04T05:40:54;101901.78;;;10.48;100.00
10071;BME280;5074;53.720;10.014;2023-06-04T05:43:22;101899.91;;;10.51;100.00
10071;BME280;5074;53.720;10.014;2023-06-04T05:45:50;101897.22;;;10.53;100.00
10071;BME280;5074;53.720;10.014;2023-06-04T05:48:20;101896.22;;;10.58;100.00
10071;BME280;5074;53.720;10.014;2023-06-04T05:50:48;101895.19;;;10.67;100.00
10071;BME280;5074;53.720;10.014;2023-06-04T05:53:16;101894.06;;;10.82;100.00
10071;BME280;5074;53.720;10.014;2023-06-04T05:55:44;101893.94;;;10.88;100.00
10071;BME280;5074;53.720;10.014;2023-06-04T05:58:12;101895.72;;;10.88;100.00
10071;BME280;5074;53.720;10.014;2023-06-04T06:00:40;101896.59;;;10.88;100.00
10071;BME280;5074;53.720;10.014;2023-06-04T06:03:09;101888.44;;;10.94;100.00
10071;BME280;5074;53.720;10.014;2023-06-04T06:05:38;101889.25;;;11.00;100.00
10071;BME280;5074;53.720;10.014;2023-06-04T06:08:07;101895.34;;;11.08;100.00
10071;BME280;5074;53.720;10.014;2023-06-04T06:10:35;101898.59;;;11.24;100.00
10071;BME280;5074;53.720;10.014;2023-06-04T06:13:03;101899.09;;;11.43;100.00
10071;BME280;5074;53.720;10.014;2023-06-04T06:15:31;101891.69;;;11.56;100.00
10071;BME280;5074;53.720;10.014;2023-06-04T06:17:59;101894.28;;;11.60;100.00
10071;BME280;5074;53.720;10.014;2023-06-04T06:20:28;101898.53;;;11.69;100.00
10071;BME280;5074;53.720;10.014;2023-06-04T06:23:00;101900.13;;;11.78;100.00
10071;BME280;5074;53.720;10.014;2023-06-04T06:25:33;101899.91;;;11.89;100.00
10071;BME280;5074;53.720;10.014;2023-06-04T06:28:01;101900.91;;;11.85;100.00
10071;BME280;5074;53.720;10.014;2023-06-04T06:30:29;101904.06;;;12.04;100.00
10071;BME280;5074;53.720;10.014;2023-06-04T06:32:57;101898.59;;;12.08;100.00
10071;BME280;5074;53.720;10.014;2023-06-04T06:35:25;101893.19;;;12.10;100.00
10071;BME280;5074;53.720;10.014;2023-06-04T06:37:53;101897.53;;;12.15;100.00
10071;BME280;5074;53.720;10.014;2023-06-04T06:40:23;101896.66;;;12.15;100.00
10071;BME280;5074;53.720;10.014;2023-06-04T06:42:51;101898.38;;;12.16;100.00
10071;BME280;5074;53.720;10.014;2023-06-04T06:45:19;101900.00;;;12.23;100.00
10071;BME280;5074;53.720;10.014;2023-06-04T06:47:48;101904.53;;;12.21;100.00
10071;BME280;5074;53.720;10.014;2023-06-04T06:50:16;101906.94;;;12.32;100.00
10071;BME280;5074;53.720;10.014;2023-06-04T06:52:44;101912.13;;;12.40;100.00
10071;BME280;5074;53.720;10.014;2023-06-04T06:55:12;101911.22;;;12.39;100.00
10071;BME280;5074;53.720;10.014;2023-06-04T06:57:41;101909.50;;;12.38;100.00
10071;BME280;5074;53.720;10.014;2023-06-04T07:00:10;101916.59;;;12.41;100.00
10071;BME280;5074;53.720;10.014;2023-06-04T07:02:39;101917.97;;;12.57;100.00
10071;BME280;5074;53.720;10.014;2023-06-04T07:05:07;101916.06;;;12.62;100.00
10071;BME280;5074;53.720;10.014;2023-06-04T07:07:35;101920.44;;;12.65;100.00
10071;BME280;5074;53.720;10.014;2023-06-04T07:10:04;101913.94;;;12.74;100.00
10071;BME280;5074;53.720;10.014;2023-06-04T07:12:32;101914.06;;;12.69;100.00
10071;BME280;5074;53.720;10.014;2023-06-04T07:15:02;101918.19;;;12.82;100.00
10071;BME280;5074;53.720;10.014;2023-06-04T07:17:30;101918.19;;;12.82;100.00
10071;BME280;5074;53.720;10.014;2023-06-04T07:19:59;101921.59;;;12.89;100.00
10071;BME280;5074;53.720;10.014;2023-06-04T07:22:28;101915.06;;;12.99;100.00
10071;BME280;5074;53.720;10.014;2023-06-04T07:24:56;101914.16;;;13.00;100.00
10071;BME280;5074;53.720;10.014;2023-06-04T07:27:24;101908.47;;;13.11;100.00
10071;BME280;5074;53.720;10.014;2023-06-04T07:29:53;101913.47;;;13.25;100.00
10071;BME280;5074;53.720;10.014;2023-06-04T07:32:22;101910.88;;;13.22;100.00
10071;BME280;5074;53.720;10.014;2023-06-04T07:34:50;101914.25;;;13.29;100.00
10071;BME280;5074;53.720;10.014;2023-06-04T07:37:18;101909.44;;;13.42;100.00
10071;BME280;5074;53.720;10.014;2023-06-04T07:39:46;101902.81;;;13.55;100.00
10071;BME280;5074;53.720;10.014;2023-06-04T07:42:14;101906.81;;;13.70;100.00
10071;BME280;5074;53.720;10.014;2023-06-04T07:44:43;101908.69;;;13.68;100.00
10071;BME280;5074;53.720;10.014;2023-06-04T07:47:11;101905.09;;;13.67;100.00
10071;BME280;5074;53.720;10.014;2023-06-04T07:49:40;101900.25;;;13.80;100.00
10071;BME280;5074;53.720;10.014;2023-06-04T07:52:27;101902.41;;;13.97;100.00
10071;BME280;5074;53.720;10.014;2023-06-04T07:54:55;101895.72;;;14.11;100.00
10071;BME280;5074;53.720;10.014;2023-06-04T07:57:23;101899.41;;;14.06;100.00
10071;BME280;5074;53.720;10.014;2023-06-04T07:59:51;101896.63;;;14.10;100.00
10071;BME280;5074;53.720;10.014;2023-06-04T08:02:20;101890.97;;;14.19;100.00
10071;BME280;5074;53.720;10.014;2023-06-04T08:04:49;101895.31;;;14.23;100.00
10071;BME280;5074;53.720;10.014;2023-06-04T08:07:18;101903.94;;;14.33;100.00
10071;BME280;5074;53.720;10.014;2023-06-04T08:09:46;101893.72;;;14.44;96.56
10071;BME280;5074;53.720;10.014;2023-06-04T08:12:14;101892.94;;;14.40;100.00
10071;BME280;5074;53.720;10.014;2023-06-04T08:14:43;101899.78;;;14.51;98.00
10071;BME280;5074;53.720;10.014;2023-06-04T08:17:11;101900.66;;;14.51;98.51
10071;BME280;5074;53.720;10.014;2023-06-04T08:19:40;101897.63;;;14.62;97.36
10071;BME280;5074;53.720;10.014;2023-06-04T08:22:09;101898.97;;;14.75;100.00
10071;BME280;5074;53.720;10.014;2023-06-04T08:24:39;101891.00;;;14.72;96.20
10071;BME280;5074;53.720;10.014;2023-06-04T08:27:07;101896.91;;;14.84;95.85
10071;BME280;5074;53.720;10.014;2023-06-04T08:29:35;101890.19;;;14.96;96.76
10071;BME280;5074;53.720;10.014;2023-06-04T08:32:04;101900.63;;;15.05;98.04
10071;BME280;5074;53.720;10.014;2023-06-04T08:34:32;101898.47;;;15.15;93.29
10071;BME280;5074;53.720;10.014;2023-06-04T08:37:00;101898.72;;;15.08;93.51
10071;BME280;5074;53.720;10.014;2023-06-04T08:39:30;101901.50;;;15.05;87.85
10071;BME280;5074;53.720;10.014;2023-06-04T08:42:03;101906.00;;;15.05;85.23
10071;BME280;5074;53.720;10.014;2023-06-04T08:44:32;101906.56;;;15.15;83.17
10071;BME280;5074;53.720;10.014;2023-06-04T08:47:02;101905.69;;;15.14;88.62
10071;BME280;5074;53.720;10.014;2023-06-04T08:49:33;101903.31;;;15.30;94.82
10071;BME280;5074;53.720;10.014;2023-06-04T08:52:02;101901.47;;;15.31;91.39
10071;BME280;5074;53.720;10.014;2023-06-04T08:54:32;101903.25;;;15.32;94.39
10071;BME280;5074;53.720;10.014;2023-06-04T08:57:01;101907.59;;;15.36;86.89
10071;BME280;5074;53.720;10.014;2023-06-04T08:59:29;101900.97;;;15.44;81.52
10071;BME280;5074;53.720;10.014;2023-06-04T09:01:58;101894.13;;;15.59;82.18
10071;BME280;5074;53.720;10.014;2023-06-04T09:04:27;101903.59;;;15.70;83.68
10071;BME280;5074;53.720;10.014;2023-06-04T09:07:01;101897.53;;;15.65;87.37
10071;BME280;5074;53.720;10.014;2023-06-04T09:09:32;101900.50;;;15.57;87.60
10071;BME280;5074;53.720;10.014;2023-06-04T09:12:08;101903.66;;;15.68;85.24
10071;BME280;5074;53.720;10.014;2023-06-04T09:14:37;101905.53;;;15.66;84.23
10071;BME280;5074;53.720;10.014;2023-06-04T09:17:05;101916.94;;;15.73;85.83
10071;BME280;5074;53.720;10.014;2023-06-04T09:19:33;101912.47;;;15.73;89.52
10071;BME280;5074;53.720;10.014;2023-06-04T09:22:02;101912.41;;;15.75;94.50
10071;BME280;5074;53.720;10.014;2023-06-04T09:24:42;101909.16;;;15.89;92.14
10071;BME280;5074;53.720;10.014;2023-06-04T09:27:14;101918.50;;;15.80;90.13
10071;BME280;5074;53.720;10.014;2023-06-04T09:29:49;101918.09;;;15.91;86.84
10071;BME280;5074;53.720;10.014;2023-06-04T09:32:21;101921.88;;;16.09;84.94
10071;BME280;5074;53.720;10.014;2023-06-04T09:34:50;101917.44;;;16.08;83.48
10071;BME280;5074;53.720;10.014;2023-06-04T09:37:20;101924.28;;;16.17;84.54
10071;BME280;5074;53.720;10.014;2023-06-04T09:39:54;101908.28;;;16.34;84.82
10071;BME280;5074;53.720;10.014;2023-06-04T09:42:23;101914.34;;;16.39;84.48
10071;BME280;5074;53.720;10.014;2023-06-04T09:44:51;101922.00;;;16.50;83.95
10071;BME280;5074;53.720;10.014;2023-06-04T09:47:20;101915.97;;;16.43;85.77
10071;BME280;5074;53.720;10.014;2023-06-04T09:49:49;101911.28;;;16.48;89.84
10071;BME280;5074;53.720;10.014;2023-06-04T09:52:17;101914.53;;;16.57;89.12
10071;BME280;5074;53.720;10.014;2023-06-04T09:54:48;101911.78;;;16.58;88.10
10071;BME280;5074;53.720;10.014;2023-06-04T09:57:18;101919.59;;;16.64;91.78
10071;BME280;5074;53.720;10.014;2023-06-04T09:59:49;101910.16;;;16.75;89.64
10071;BME280;5074;53.720;10.014;2023-06-04T10:02:20;101905.75;;;16.72;86.98
10071;BME280;5074;53.720;10.014;2023-06-04T10:04:52;101908.38;;;16.96;87.47
10071;BME280;5074;53.720;10.014;2023-06-04T10:07:22;101901.78;;;16.81;87.26
10071;BME280;5074;53.720;10.014;2023-06-04T10:09:50;101904.63;;;16.78;87.56
10071;BME280;5074;53.720;10.014;2023-06-04T10:12:24;101908.25;;;16.77;86.41
10071;BME280;5074;53.720;10.014;2023-06-04T10:14:56;101905.38;;;16.81;86.93
10071;BME280;5074;53.720;10.014;2023-06-04T10:17:25;101899.78;;;17.07;84.65
10071;BME280;5074;53.720;10.014;2023-06-04T10:19:56;101897.69;;;16.93;81.91
10071;BME280;5074;53.720;10.014;2023-06-04T10:22:26;101901.28;;;17.14;82.62
10071;BME280;5074;53.720;10.014;2023-06-04T10:24:56;101905.66;;;17.16;80.58
10071;BME280;5074;53.720;10.014;2023-06-04T10:27:25;101905.25;;;17.26;79.99
10071;BME280;5074;53.720;10.014;2023-06-04T10:29:54;101899.69;;;17.29;77.07
10071;BME280;5074;53.720;10.014;2023-06-04T10:32:22;101897.34;;;17.21;72.31
10071;BME280;5074;53.720;10.014;2023-06-04T10:34:54;101892.19;;;17.35;75.73
10071;BME280;5074;53.720;10.014;2023-06-04T10:37:25;101889.41;;;17.37;73.96
10071;BME280;5074;53.720;10.014;2023-06-04T10:39:57;101900.75;;;17.45;74.20
10071;BME280;5074;53.720;10.014;2023-06-04T10:42:37;101897.03;;;17.48;70.92
10071;BME280;5074;53.720;10.014;2023-06-04T10:45:07;101903.00;;;17.35;68.59
10071;BME280;5074;53.720;10.014;2023-06-04T10:47:36;101910.31;;;17.33;69.88
10071;BME280;5074;53.720;10.014;2023-06-04T10:50:09;101895.91;;;17.33;67.49
10071;BME280;5074;53.720;10.014;2023-06-04T10:52:39;101906.00;;;17.29;68.81
10071;BME280;5074;53.720;10.014;2023-06-04T10:55:17;101907.03;;;17.46;68.87
10071;BME280;5074;53.720;10.014;2023-06-04T10:57:52;101901.91;;;17.40;67.27
10071;BME280;5074;53.720;10.014;2023-06-04T11:00:22;101904.25;;;17.47;63.47
10071;BME280;5074;53.720;10.014;2023-06-04T11:02:52;101903.09;;;17.53;64.26
10071;BME280;5074;53.720;10.014;2023-06-04T11:05:20;101905.53;;;17.78;69.32
10071;BME280;5074;53.720;10.014;2023-06-04T11:07:49;101910.66;;;17.65;69.50
10071;BME280;5074;53.720;10.014;2023-06-04T11:10:17;101900.31;;;17.74;68.80
10071;BME280;5074;53.720;10.014;2023-06-04T11:12:46;101907.28;;;17.79;67.63
10071;BME280;5074;53.720;10.014;2023-06-04T11:15:16;101896.63;;;17.95;69.12
10071;BME280;5074;53.720;10.014;2023-06-04T11:17:52;101899.25;;;17.97;69.17
10071;BME280;5074;53.720;10.014;2023-06-04T11:20:21;101903.56;;;18.01;67.33
10071;BME280;5074;53.720;10.014;2023-06-04T11:22:51;101903.16;;;17.91;66.92
10071;BME280;5074;53.720;10.014;2023-06-04T11:25:19;101904.16;;;18.08;67.30
10071;BME280;5074;53.720;10.014;2023-06-04T11:27:52;101896.81;;;18.29;66.79
10071;BME280;5074;53.720;10.014;2023-06-04T11:30:22;101881.88;;;18.39;71.89
10071;BME280;5074;53.720;10.014;2023-06-04T11:32:59;101892.72;;;18.74;68.17
10071;BME280;5074;53.720;10.014;2023-06-04T11:35:28;101890.84;;;18.39;65.99
10071;BME280;5074;53.720;10.014;2023-06-04T11:37:57;101885.03;;;18.47;66.69
10071;BME280;5074;53.720;10.014;2023-06-04T11:40:26;101887.78;;;18.65;67.91
10071;BME280;5074;53.720;10.014;2023-06-04T11:42:57;101885.78;;;18.86;66.99
10071;BME280;5074;53.720;10.014;2023-06-04T11:45:27;101886.50;;;19.07;65.88
10071;BME280;5074;53.720;10.014;2023-06-04T11:47:57;101881.47;;;19.17;66.56
10071;BME280;5074;53.720;10.014;2023-06-04T11:50:27;101877.56;;;19.05;63.20
10071;BME280;5074;53.720;10.014;2023-06-04T11:52:55;101876.72;;;18.87;63.64
10071;BME280;5074;53.720;10.014;2023-06-04T11:55:24;101876.72;;;18.87;63.93
10071;BME280;5074;53.720;10.014;2023-06-04T11:57:53;101879.84;;;19.30;62.51
10071;BME280;5074;53.720;10.014;2023-06-04T12:00:21;101858.53;;;19.40;65.12
10071;BME280;5074;53.720;10.014;2023-06-04T12:02:53;101871.78;;;19.78;67.43
10071;BME280;5074;53.720;10.014;2023-06-04T12:05:23;101876.59;;;19.89;62.76
10071;BME280;5074;53.720;10.014;2023-06-04T12:08:04;101875.69;;;19.56;63.58
10071;BME280;5074;53.720;10.014;2023-06-04T12:10:37;101870.72;;;19.65;65.74
10071;BME280;5074;53.720;10.014;2023-06-04T12:13:05;101875.28;;;19.96;63.96
10071;BME280;5074;53.720;10.014;2023-06-04T12:15:33;101874.25;;;20.15;64.09
10071;BME280;5074;53.720;10.014;2023-06-04T12:18:03;101879.31;;;20.05;61.21
10071;BME280;5074;53.720;10.014;2023-06-04T12:20:34;101873.09;;;20.19;60.75
10071;BME280;5074;53.720;10.014;2023-06-04T12:23:03;101873.41;;;20.44;60.83
10071;BME280;5074;53.720;10.014;2023-06-04T12:25:32;101877.00;;;20.75;60.21
10071;BME280;5074;53.720;10.014;2023-06-04T12:28:01;101877.66;;;21.09;57.90
10071;BME280;5074;53.720;10.014;2023-06-04T12:30:38;101870.88;;;21.74;54.65
10071;BME280;5074;53.720;10.014;2023-06-04T12:33:08;101881.25;;;23.17;51.68
10071;BME280;5074;53.720;10.014;2023-06-04T12:35:36;101864.28;;;24.73;48.05
10071;BME280;5074;53.720;10.014;2023-06-04T12:38:04;101856.66;;;26.24;45.16
10071;BME280;5074;53.720;10.014;2023-06-04T12:40:36;101853.78;;;27.52;39.61
10071;BME280;5074;53.720;10.014;2023-06-04T12:43:05;101846.84;;;28.28;39.41
10071;BME280;5074;53.720;10.014;2023-06-04T12:45:33;101851.50;;;28.76;34.96
10071;BME280;5074;53.720;10.014;2023-06-04T12:48:01;101852.03;;;27.51;36.95
10071;BME280;5074;53.720;10.014;2023-06-04T12:50:31;101849.31;;;28.50;34.22
10071;BME280;5074;53.720;10.014;2023-06-04T12:52:59;101843.25;;;28.37;34.72
10071;BME280;5074;53.720;10.014;2023-06-04T12:55:27;101853.56;;;27.34;34.56
10071;BME280;5074;53.720;10.014;2023-06-04T12:57:55;101845.97;;;25.65;37.06
10071;BME280;5074;53.720;10.014;2023-06-04T13:00:23;101845.13;;;27.57;34.44